Aérodrome :







RETROUVEZ-NOUS SUR...

 
LOGIN :

S'inscrire | Disclaimer

   EN    FR    IT 

 









Légende :    VFR   VFR Marginal   IFR   IFR Intensif   IFR Très Intensif
Visi : 
Plafond : 
>= 8 km
>= 3000ft
5 à 8 km
1000 à 3000 ft
1500m à 5 km
500 à 1000 ft
800 à 1500m
200 à 500 ft
< 800m
< 200 ft
Symboles :   Orages  Brouillard  Fortes neiges  Fortes précipitations  Vent > 20 kt






- Altitude de l'aérodrome : 24 ft
- Code IATA : HFN


BIHN - Hornafjordur

DERNIER METAR :
  • 261015Z 02027G40KT 9999 FEW040 SCT080 M01/M07 Q0991 R18/790235 RMK RUNWAY SANDED

METARs EXPIRÉS :
  • 260900Z 03030G41KT 9999 FEW060 M01/M07 Q0991 R18/790234
  • 260800Z 03032KT 9999 FEW060 M01/M08 Q0990 R18/790227

TAF TAF BIHN
Valide du 26 à 11h jusqu'au 26 à 20h UTC


261017Z 2611/2620 03028G38KT 9999 FEW040 SCT055
TEMPO 2611/2618 03038G48KT



MET'MAP, la Météo Aéronautique d'un coup d'oeil ! - Copyright ORBIFLY Décembre 2007 - Disclaimer

ORBIFLY MET'MAP TEAM :

Programmation & Développement : Alexandra Zaïnal
Sur une idée originale de : Baudouin d'Aumeries
Assistance à la programmation : Marc-Olivier Méhu
Soutien technique & logistique : Manuel Goepfert

Contact : metmap@orbifly.com




SOURCES & CREDITS :

   NOAA